sensor_id;sensor_type;location;lat;lon;timestamp;temperature;humidity
36416;DHT22;22447;44.530;18.620;2023-04-25T00:00:12;12.20;99.90
36416;DHT22;22447;44.530;18.620;2023-04-25T00:02:40;12.20;99.90
36416;DHT22;22447;44.530;18.620;2023-04-25T00:05:07;12.20;99.90
36416;DHT22;22447;44.530;18.620;2023-04-25T00:07:33;12.10;99.90
36416;DHT22;22447;44.530;18.620;2023-04-25T00:09:59;12.20;99.90
36416;DHT22;22447;44.530;18.620;2023-04-25T00:12:25;12.20;99.90
36416;DHT22;22447;44.530;18.620;2023-04-25T00:14:50;12.10;99.90
36416;DHT22;22447;44.530;18.620;2023-04-25T00:17:16;12.10;99.90
36416;DHT22;22447;44.530;18.620;2023-04-25T00:19:42;12.10;99.90
36416;DHT22;22447;44.530;18.620;2023-04-25T00:22:10;12.20;99.90
36416;DHT22;22447;44.530;18.620;2023-04-25T00:24:36;12.20;99.90
36416;DHT22;22447;44.530;18.620;2023-04-25T00:27:02;12.20;99.90
36416;DHT22;22447;44.530;18.620;2023-04-25T00:29:27;12.10;99.90
36416;DHT22;22447;44.530;18.620;2023-04-25T00:31:53;12.10;99.90
36416;DHT22;22447;44.530;18.620;2023-04-25T00:34:19;12.10;99.90
36416;DHT22;22447;44.530;18.620;2023-04-25T00:36:45;12.10;99.90
36416;DHT22;22447;44.530;18.620;2023-04-25T00:39:11;12.10;99.90
36416;DHT22;22447;44.530;18.620;2023-04-25T00:41:37;12.00;99.90
36416;DHT22;22447;44.530;18.620;2023-04-25T00:44:03;12.00;99.90
36416;DHT22;22447;44.530;18.620;2023-04-25T00:46:30;12.00;99.90
36416;DHT22;22447;44.530;18.620;2023-04-25T00:48:56;12.00;99.90
36416;DHT22;22447;44.530;18.620;2023-04-25T00:51:22;12.00;99.90
36416;DHT22;22447;44.530;18.620;2023-04-25T00:53:49;11.90;99.90
36416;DHT22;22447;44.530;18.620;2023-04-25T00:56:15;11.90;99.90
36416;DHT22;22447;44.530;18.620;2023-04-25T00:58:41;11.80;99.90
36416;DHT22;22447;44.530;18.620;2023-04-25T01:01:08;11.90;99.90
36416;DHT22;22447;44.530;18.620;2023-04-25T01:03:34;11.90;99.90
36416;DHT22;22447;44.530;18.620;2023-04-25T01:06:07;11.90;99.90
36416;DHT22;22447;44.530;18.620;2023-04-25T01:08:33;11.90;99.90
36416;DHT22;22447;44.530;18.620;2023-04-25T01:10:59;12.00;99.90
36416;DHT22;22447;44.530;18.620;2023-04-25T01:13:25;12.00;99.90
36416;DHT22;22447;44.530;18.620;2023-04-25T01:15:51;11.90;99.90
36416;DHT22;22447;44.530;18.620;2023-04-25T01:18:17;11.90;99.90
36416;DHT22;22447;44.530;18.620;2023-04-25T01:20:44;11.90;99.90
36416;DHT22;22447;44.530;18.620;2023-04-25T01:23:11;12.00;99.90
36416;DHT22;22447;44.530;18.620;2023-04-25T01:25:37;12.00;99.90
36416;DHT22;22447;44.530;18.620;2023-04-25T01:28:04;12.00;99.90
36416;DHT22;22447;44.530;18.620;2023-04-25T01:30:31;11.90;99.90
36416;DHT22;22447;44.530;18.620;2023-04-25T01:32:57;11.90;99.90
36416;DHT22;22447;44.530;18.620;2023-04-25T01:35:23;11.90;99.90
36416;DHT22;22447;44.530;18.620;2023-04-25T01:37:52;11.90;99.90
36416;DHT22;22447;44.530;18.620;2023-04-25T01:40:18;11.90;99.90
36416;DHT22;22447;44.530;18.620;2023-04-25T01:42:46;11.90;99.90
36416;DHT22;22447;44.530;18.620;2023-04-25T01:45:12;11.90;99.90
36416;DHT22;22447;44.530;18.620;2023-04-25T01:47:38;11.90;99.90
36416;DHT22;22447;44.530;18.620;2023-04-25T01:50:05;11.90;99.90
36416;DHT22;22447;44.530;18.620;2023-04-25T01:52:32;11.90;99.90
36416;DHT22;22447;44.530;18.620;2023-04-25T01:54:59;11.90;99.90
36416;DHT22;22447;44.530;18.620;2023-04-25T01:57:28;12.00;99.90
36416;DHT22;22447;44.530;18.620;2023-04-25T01:59:55;11.90;99.90
36416;DHT22;22447;44.530;18.620;2023-04-25T02:02:39;11.80;99.90
36416;DHT22;22447;44.530;18.620;2023-04-25T02:05:09;11.70;99.90
36416;DHT22;22447;44.530;18.620;2023-04-25T02:07:38;11.70;99.90
36416;DHT22;22447;44.530;18.620;2023-04-25T02:10:04;11.60;99.90
36416;DHT22;22447;44.530;18.620;2023-04-25T02:12:35;11.50;99.90
36416;DHT22;22447;44.530;18.620;2023-04-25T02:15:22;11.50;99.90
36416;DHT22;22447;44.530;18.620;2023-04-25T02:17:54;11.50;99.90
36416;DHT22;22447;44.530;18.620;2023-04-25T02:20:21;11.50;99.90
36416;DHT22;22447;44.530;18.620;2023-04-25T02:22:48;11.50;99.90
36416;DHT22;22447;44.530;18.620;2023-04-25T02:25:13;11.40;99.90
36416;DHT22;22447;44.530;18.620;2023-04-25T02:27:40;11.40;99.90
36416;DHT22;22447;44.530;18.620;2023-04-25T02:30:07;11.50;99.90
36416;DHT22;22447;44.530;18.620;2023-04-25T02:32:33;11.50;99.90
36416;DHT22;22447;44.530;18.620;2023-04-25T02:35:00;11.40;99.90
36416;DHT22;22447;44.530;18.620;2023-04-25T02:37:30;11.40;99.90
36416;DHT22;22447;44.530;18.620;2023-04-25T02:39:56;11.40;99.90
36416;DHT22;22447;44.530;18.620;2023-04-25T02:42:21;11.40;99.90
36416;DHT22;22447;44.530;18.620;2023-04-25T02:44:49;11.30;99.90
36416;DHT22;22447;44.530;18.620;2023-04-25T02:47:14;11.30;99.90
36416;DHT22;22447;44.530;18.620;2023-04-25T02:49:42;11.30;99.90
36416;DHT22;22447;44.530;18.620;2023-04-25T02:52:08;11.40;99.90
36416;DHT22;22447;44.530;18.620;2023-04-25T02:54:35;11.30;99.90
36416;DHT22;22447;44.530;18.620;2023-04-25T02:57:01;11.40;99.90
36416;DHT22;22447;44.530;18.620;2023-04-25T02:59:34;11.30;99.90
36416;DHT22;22447;44.530;18.620;2023-04-25T03:02:00;11.30;99.90
36416;DHT22;22447;44.530;18.620;2023-04-25T03:04:25;11.20;99.90
36416;DHT22;22447;44.530;18.620;2023-04-25T03:06:51;11.10;99.90
36416;DHT22;22447;44.530;18.620;2023-04-25T03:09:19;11.10;99.90
36416;DHT22;22447;44.530;18.620;2023-04-25T03:11:46;11.10;99.90
36416;DHT22;22447;44.530;18.620;2023-04-25T03:14:12;11.10;99.90
36416;DHT22;22447;44.530;18.620;2023-04-25T03:16:38;11.00;99.90
36416;DHT22;22447;44.530;18.620;2023-04-25T03:19:04;11.00;99.90
36416;DHT22;22447;44.530;18.620;2023-04-25T03:21:31;10.90;99.90
36416;DHT22;22447;44.530;18.620;2023-04-25T03:24:00;10.90;99.90
36416;DHT22;22447;44.530;18.620;2023-04-25T03:26:27;10.80;99.90
36416;DHT22;22447;44.530;18.620;2023-04-25T03:28:53;10.80;99.90
36416;DHT22;22447;44.530;18.620;2023-04-25T03:31:19;10.80;99.90
36416;DHT22;22447;44.530;18.620;2023-04-25T03:33:46;10.70;99.90
36416;DHT22;22447;44.530;18.620;2023-04-25T03:36:11;10.70;99.90
36416;DHT22;22447;44.530;18.620;2023-04-25T03:38:39;10.70;99.90
36416;DHT22;22447;44.530;18.620;2023-04-25T03:41:07;10.70;99.90
36416;DHT22;22447;44.530;18.620;2023-04-25T03:43:51;10.60;99.90
36416;DHT22;22447;44.530;18.620;2023-04-25T03:46:16;10.60;99.90
36416;DHT22;22447;44.530;18.620;2023-04-25T03:48:42;10.50;99.90
36416;DHT22;22447;44.530;18.620;2023-04-25T03:51:11;10.50;99.90
36416;DHT22;22447;44.530;18.620;2023-04-25T03:53:41;10.50;99.90
36416;DHT22;22447;44.530;18.620;2023-04-25T03:56:19;10.40;99.90
36416;DHT22;22447;44.530;18.620;2023-04-25T03:58:47;10.50;99.90
36416;DHT22;22447;44.530;18.620;2023-04-25T04:01:16;10.50;99.90
36416;DHT22;22447;44.530;18.620;2023-04-25T04:03:41;10.50;99.90
36416;DHT22;22447;44.530;18.620;2023-04-25T04:06:07;10.50;99.90
36416;DHT22;22447;44.530;18.620;2023-04-25T04:08:44;10.40;99.90
36416;DHT22;22447;44.530;18.620;2023-04-25T04:11:11;10.50;99.90
36416;DHT22;22447;44.530;18.620;2023-04-25T04:13:36;10.50;99.90
36416;DHT22;22447;44.530;18.620;2023-04-25T04:16:02;10.40;99.90
36416;DHT22;22447;44.530;18.620;2023-04-25T04:18:30;10.20;99.90
36416;DHT22;22447;44.530;18.620;2023-04-25T04:20:56;10.30;99.90
36416;DHT22;22447;44.530;18.620;2023-04-25T04:23:24;10.30;99.90
36416;DHT22;22447;44.530;18.620;2023-04-25T04:25:50;10.40;99.90
36416;DHT22;22447;44.530;18.620;2023-04-25T04:28:36;10.40;99.90
36416;DHT22;22447;44.530;18.620;2023-04-25T04:31:15;10.40;99.90
36416;DHT22;22447;44.530;18.620;2023-04-25T04:33:42;10.50;99.90
36416;DHT22;22447;44.530;18.620;2023-04-25T04:36:08;10.40;99.90
36416;DHT22;22447;44.530;18.620;2023-04-25T04:38:34;10.40;99.90
36416;DHT22;22447;44.530;18.620;2023-04-25T04:41:02;10.30;99.90
36416;DHT22;22447;44.530;18.620;2023-04-25T04:43:55;10.20;99.90
36416;DHT22;22447;44.530;18.620;2023-04-25T04:46:34;10.30;99.90
36416;DHT22;22447;44.530;18.620;2023-04-25T04:49:29;10.40;99.90
36416;DHT22;22447;44.530;18.620;2023-04-25T04:51:55;10.40;99.90
36416;DHT22;22447;44.530;18.620;2023-04-25T04:54:59;10.50;99.90
36416;DHT22;22447;44.530;18.620;2023-04-25T04:57:51;10.50;99.90
36416;DHT22;22447;44.530;18.620;2023-04-25T05:00:49;10.40;99.90
36416;DHT22;22447;44.530;18.620;2023-04-25T05:03:39;10.40;99.90
36416;DHT22;22447;44.530;18.620;2023-04-25T05:06:43;10.40;99.90
36416;DHT22;22447;44.530;18.620;2023-04-25T05:09:24;10.40;99.90
36416;DHT22;22447;44.530;18.620;2023-04-25T05:12:05;10.40;99.90
36416;DHT22;22447;44.530;18.620;2023-04-25T05:14:53;10.40;99.90
36416;DHT22;22447;44.530;18.620;2023-04-25T05:17:52;10.50;99.90
36416;DHT22;22447;44.530;18.620;2023-04-25T05:20:47;10.60;99.90
36416;DHT22;22447;44.530;18.620;2023-04-25T05:23:42;10.60;99.90
36416;DHT22;22447;44.530;18.620;2023-04-25T05:26:24;10.60;99.90
36416;DHT22;22447;44.530;18.620;2023-04-25T05:29:00;10.70;99.90
36416;DHT22;22447;44.530;18.620;2023-04-25T05:31:49;10.70;99.90
36416;DHT22;22447;44.530;18.620;2023-04-25T05:34:16;10.80;99.90
36416;DHT22;22447;44.530;18.620;2023-04-25T05:37:03;10.90;99.90
36416;DHT22;22447;44.530;18.620;2023-04-25T05:39:34;10.90;99.90
36416;DHT22;22447;44.530;18.620;2023-04-25T05:42:25;10.90;99.90
36416;DHT22;22447;44.530;18.620;2023-04-25T05:45:10;11.00;99.90
36416;DHT22;22447;44.530;18.620;2023-04-25T05:47:45;11.10;99.90
36416;DHT22;22447;44.530;18.620;2023-04-25T05:50:17;11.10;99.90
36416;DHT22;22447;44.530;18.620;2023-04-25T05:53:02;11.20;99.90
36416;DHT22;22447;44.530;18.620;2023-04-25T05:55:31;11.30;99.90
36416;DHT22;22447;44.530;18.620;2023-04-25T05:57:59;11.30;99.90
36416;DHT22;22447;44.530;18.620;2023-04-25T06:00:25;11.40;99.90
36416;DHT22;22447;44.530;18.620;2023-04-25T06:02:51;11.60;99.90
36416;DHT22;22447;44.530;18.620;2023-04-25T06:05:18;11.60;99.90
36416;DHT22;22447;44.530;18.620;2023-04-25T06:07:45;11.70;99.90
36416;DHT22;22447;44.530;18.620;2023-04-25T06:10:13;11.60;99.90
36416;DHT22;22447;44.530;18.620;2023-04-25T06:12:39;11.60;99.90
36416;DHT22;22447;44.530;18.620;2023-04-25T06:15:05;11.70;99.90
36416;DHT22;22447;44.530;18.620;2023-04-25T06:17:31;11.80;99.90
36416;DHT22;22447;44.530;18.620;2023-04-25T06:19:57;11.80;99.90
36416;DHT22;22447;44.530;18.620;2023-04-25T06:22:23;11.90;99.90
36416;DHT22;22447;44.530;18.620;2023-04-25T06:24:50;12.00;99.90
36416;DHT22;22447;44.530;18.620;2023-04-25T06:27:16;12.10;99.90
36416;DHT22;22447;44.530;18.620;2023-04-25T06:29:41;12.10;99.90
36416;DHT22;22447;44.530;18.620;2023-04-25T06:32:07;12.10;99.90
36416;DHT22;22447;44.530;18.620;2023-04-25T06:34:34;12.20;99.90
36416;DHT22;22447;44.530;18.620;2023-04-25T06:36:59;12.30;99.90
36416;DHT22;22447;44.530;18.620;2023-04-25T06:39:25;12.20;99.90
36416;DHT22;22447;44.530;18.620;2023-04-25T06:41:51;12.30;99.90
36416;DHT22;22447;44.530;18.620;2023-04-25T06:44:36;12.30;99.90
36416;DHT22;22447;44.530;18.620;2023-04-25T06:47:03;12.40;99.90
36416;DHT22;22447;44.530;18.620;2023-04-25T06:49:29;12.50;99.90
36416;DHT22;22447;44.530;18.620;2023-04-25T06:51:55;12.60;99.90
36416;DHT22;22447;44.530;18.620;2023-04-25T06:54:21;12.60;99.90
36416;DHT22;22447;44.530;18.620;2023-04-25T06:56:58;12.60;99.90
36416;DHT22;22447;44.530;18.620;2023-04-25T06:59:27;12.60;99.90
36416;DHT22;22447;44.530;18.620;2023-04-25T07:01:53;12.70;99.90
36416;DHT22;22447;44.530;18.620;2023-04-25T07:04:23;12.80;99.90
36416;DHT22;22447;44.530;18.620;2023-04-25T07:06:54;13.00;99.90
36416;DHT22;22447;44.530;18.620;2023-04-25T07:09:29;13.10;99.90
36416;DHT22;22447;44.530;18.620;2023-04-25T07:11:55;13.30;99.90
36416;DHT22;22447;44.530;18.620;2023-04-25T07:14:22;13.40;99.90
36416;DHT22;22447;44.530;18.620;2023-04-25T07:16:49;13.40;99.90
36416;DHT22;22447;44.530;18.620;2023-04-25T07:19:15;13.40;99.90
36416;DHT22;22447;44.530;18.620;2023-04-25T07:21:41;13.60;99.90
36416;DHT22;22447;44.530;18.620;2023-04-25T07:24:07;13.60;99.90
36416;DHT22;22447;44.530;18.620;2023-04-25T07:26:36;13.70;99.90
36416;DHT22;22447;44.530;18.620;2023-04-25T07:29:35;13.70;99.90
36416;DHT22;22447;44.530;18.620;2023-04-25T07:32:03;13.80;99.90
36416;DHT22;22447;44.530;18.620;2023-04-25T07:34:29;13.90;99.90
36416;DHT22;22447;44.530;18.620;2023-04-25T07:36:56;14.00;99.90
36416;DHT22;22447;44.530;18.620;2023-04-25T07:39:25;14.10;99.90
36416;DHT22;22447;44.530;18.620;2023-04-25T07:41:51;14.10;99.90
36416;DHT22;22447;44.530;18.620;2023-04-25T07:44:23;14.10;99.90
36416;DHT22;22447;44.530;18.620;2023-04-25T07:46:49;14.10;99.90
36416;DHT22;22447;44.530;18.620;2023-04-25T07:49:15;14.10;99.90
36416;DHT22;22447;44.530;18.620;2023-04-25T07:51:43;14.20;99.90
36416;DHT22;22447;44.530;18.620;2023-04-25T07:54:15;14.20;99.90
36416;DHT22;22447;44.530;18.620;2023-04-25T07:56:49;14.00;99.90
36416;DHT22;22447;44.530;18.620;2023-04-25T07:59:16;13.90;99.90
36416;DHT22;22447;44.530;18.620;2023-04-25T08:01:42;14.00;99.90
36416;DHT22;22447;44.530;18.620;2023-04-25T08:04:09;14.20;99.90
36416;DHT22;22447;44.530;18.620;2023-04-25T08:06:55;14.10;99.90
36416;DHT22;22447;44.530;18.620;2023-04-25T08:09:28;14.10;99.90
36416;DHT22;22447;44.530;18.620;2023-04-25T08:11:55;14.20;99.90
36416;DHT22;22447;44.530;18.620;2023-04-25T08:14:26;14.40;99.90
36416;DHT22;22447;44.530;18.620;2023-04-25T08:16:52;14.60;99.90
36416;DHT22;22447;44.530;18.620;2023-04-25T08:19:19;14.80;99.90
36416;DHT22;22447;44.530;18.620;2023-04-25T08:21:45;15.10;99.90
36416;DHT22;22447;44.530;18.620;2023-04-25T08:24:15;15.10;99.90
36416;DHT22;22447;44.530;18.620;2023-04-25T08:26:41;15.30;99.90
36416;DHT22;22447;44.530;18.620;2023-04-25T08:29:10;15.30;99.90
36416;DHT22;22447;44.530;18.620;2023-04-25T08:31:38;15.30;99.70
36416;DHT22;22447;44.530;18.620;2023-04-25T08:34:06;15.50;98.80
36416;DHT22;22447;44.530;18.620;2023-04-25T08:36:43;15.50;96.60
36416;DHT22;22447;44.530;18.620;2023-04-25T08:39:22;15.50;94.80
36416;DHT22;22447;44.530;18.620;2023-04-25T08:42:16;15.60;94.00
36416;DHT22;22447;44.530;18.620;2023-04-25T08:44:43;15.60;93.60
36416;DHT22;22447;44.530;18.620;2023-04-25T08:47:10;15.40;94.80
36416;DHT22;22447;44.530;18.620;2023-04-25T08:49:45;15.40;92.40
36416;DHT22;22447;44.530;18.620;2023-04-25T08:52:11;15.50;93.60
36416;DHT22;22447;44.530;18.620;2023-04-25T08:54:39;15.50;92.70
36416;DHT22;22447;44.530;18.620;2023-04-25T08:57:08;15.40;93.00
36416;DHT22;22447;44.530;18.620;2023-04-25T08:59:34;15.60;93.80
36416;DHT22;22447;44.530;18.620;2023-04-25T09:02:01;15.70;89.00
36416;DHT22;22447;44.530;18.620;2023-04-25T09:04:27;15.90;91.20
36416;DHT22;22447;44.530;18.620;2023-04-25T09:06:55;16.10;87.80
36416;DHT22;22447;44.530;18.620;2023-04-25T09:09:24;16.50;86.40
36416;DHT22;22447;44.530;18.620;2023-04-25T09:11:54;16.50;83.20
36416;DHT22;22447;44.530;18.620;2023-04-25T09:14:20;16.50;86.00
36416;DHT22;22447;44.530;18.620;2023-04-25T09:17:07;16.50;85.40
36416;DHT22;22447;44.530;18.620;2023-04-25T09:19:45;16.60;82.10
36416;DHT22;22447;44.530;18.620;2023-04-25T09:22:17;16.50;84.40
36416;DHT22;22447;44.530;18.620;2023-04-25T09:24:44;16.50;82.30
36416;DHT22;22447;44.530;18.620;2023-04-25T09:27:13;16.40;78.60
36416;DHT22;22447;44.530;18.620;2023-04-25T09:29:43;16.30;78.50
36416;DHT22;22447;44.530;18.620;2023-04-25T09:32:11;16.30;81.80
36416;DHT22;22447;44.530;18.620;2023-04-25T09:34:39;16.50;82.30
36416;DHT22;22447;44.530;18.620;2023-04-25T09:37:07;16.30;81.00
36416;DHT22;22447;44.530;18.620;2023-04-25T09:40:08;16.50;81.80
36416;DHT22;22447;44.530;18.620;2023-04-25T09:42:49;16.70;77.20
36416;DHT22;22447;44.530;18.620;2023-04-25T09:45:14;17.30;79.70
36416;DHT22;22447;44.530;18.620;2023-04-25T09:47:41;17.90;81.60
36416;DHT22;22447;44.530;18.620;2023-04-25T09:50:14;18.00;76.90
36416;DHT22;22447;44.530;18.620;2023-04-25T09:52:42;18.00;75.00
36416;DHT22;22447;44.530;18.620;2023-04-25T09:55:16;18.10;74.60
36416;DHT22;22447;44.530;18.620;2023-04-25T09:57:44;18.20;74.30
36416;DHT22;22447;44.530;18.620;2023-04-25T10:00:12;17.80;71.20
36416;DHT22;22447;44.530;18.620;2023-04-25T10:02:42;17.50;71.20
36416;DHT22;22447;44.530;18.620;2023-04-25T10:05:10;17.40;71.90
36416;DHT22;22447;44.530;18.620;2023-04-25T10:07:38;17.50;72.30
36416;DHT22;22447;44.530;18.620;2023-04-25T10:10:09;17.30;76.60
36416;DHT22;22447;44.530;18.620;2023-04-25T10:12:38;17.20;76.10
36416;DHT22;22447;44.530;18.620;2023-04-25T10:15:05;16.90;74.40
36416;DHT22;22447;44.530;18.620;2023-04-25T10:17:33;17.10;75.20
36416;DHT22;22447;44.530;18.620;2023-04-25T10:20:02;16.90;71.70
36416;DHT22;22447;44.530;18.620;2023-04-25T10:22:38;16.80;76.10
36416;DHT22;22447;44.530;18.620;2023-04-25T10:25:04;17.30;73.80
36416;DHT22;22447;44.530;18.620;2023-04-25T10:27:31;17.50;72.40
36416;DHT22;22447;44.530;18.620;2023-04-25T10:30:01;17.90;71.20
36416;DHT22;22447;44.530;18.620;2023-04-25T10:32:31;17.60;70.00
36416;DHT22;22447;44.530;18.620;2023-04-25T10:37:38;17.70;72.50
36416;DHT22;22447;44.530;18.620;2023-04-25T10:40:25;17.60;71.20
36416;DHT22;22447;44.530;18.620;2023-04-25T10:42:53;17.80;69.60
36416;DHT22;22447;44.530;18.620;2023-04-25T10:45:25;17.80;67.90
36416;DHT22;22447;44.530;18.620;2023-04-25T10:47:54;17.50;70.40
36416;DHT22;22447;44.530;18.620;2023-04-25T10:50:26;17.70;69.10
36416;DHT22;22447;44.530;18.620;2023-04-25T10:53:13;17.60;72.10
36416;DHT22;22447;44.530;18.620;2023-04-25T10:55:54;17.40;70.70
36416;DHT22;22447;44.530;18.620;2023-04-25T10:58:25;17.20;69.60
36416;DHT22;22447;44.530;18.620;2023-04-25T11:00:52;17.60;70.30
36416;DHT22;22447;44.530;18.620;2023-04-25T11:03:18;17.50;67.90
36416;DHT22;22447;44.530;18.620;2023-04-25T11:05:46;17.00;67.10
36416;DHT22;22447;44.530;18.620;2023-04-25T11:08:14;17.10;68.30
36416;DHT22;22447;44.530;18.620;2023-04-25T11:10:46;17.00;68.60
36416;DHT22;22447;44.530;18.620;2023-04-25T11:13:12;16.60;69.60
36416;DHT22;22447;44.530;18.620;2023-04-25T11:15:38;17.10;68.30
36416;DHT22;22447;44.530;18.620;2023-04-25T11:18:04;17.30;69.10
36416;DHT22;22447;44.530;18.620;2023-04-25T11:20:30;17.60;68.10
36416;DHT22;22447;44.530;18.620;2023-04-25T11:22:57;17.90;69.80
36416;DHT22;22447;44.530;18.620;2023-04-25T11:25:23;18.20;68.20
36416;DHT22;22447;44.530;18.620;2023-04-25T11:30:16;18.30;65.90
36416;DHT22;22447;44.530;18.620;2023-04-25T11:32:42;18.70;67.60
36416;DHT22;22447;44.530;18.620;2023-04-25T11:35:09;19.00;64.80
36416;DHT22;22447;44.530;18.620;2023-04-25T11:37:35;19.30;63.80
36416;DHT22;22447;44.530;18.620;2023-04-25T11:40:04;19.20;59.90
36416;DHT22;22447;44.530;18.620;2023-04-25T11:42:32;19.20;59.40
36416;DHT22;22447;44.530;18.620;2023-04-25T11:44:58;18.80;58.10
36416;DHT22;22447;44.530;18.620;2023-04-25T11:47:30;18.30;59.40
36416;DHT22;22447;44.530;18.620;2023-04-25T11:50:00;18.70;60.30
36416;DHT22;22447;44.530;18.620;2023-04-25T11:52:39;18.90;62.10
36416;DHT22;22447;44.530;18.620;2023-04-25T11:55:06;18.90;62.80
36416;DHT22;22447;44.530;18.620;2023-04-25T11:57:33;19.20;62.80
36416;DHT22;22447;44.530;18.620;2023-04-25T12:00:08;19.40;65.80
36416;DHT22;22447;44.530;18.620;2023-04-25T12:02:43;19.20;62.00
36416;DHT22;22447;44.530;18.620;2023-04-25T12:05:09;18.90;60.20
36416;DHT22;22447;44.530;18.620;2023-04-25T12:07:35;18.70;61.70
36416;DHT22;22447;44.530;18.620;2023-04-25T12:10:06;18.60;67.30
36416;DHT22;22447;44.530;18.620;2023-04-25T12:12:33;18.30;69.70
36416;DHT22;22447;44.530;18.620;2023-04-25T12:15:18;18.40;68.00
36416;DHT22;22447;44.530;18.620;2023-04-25T12:17:47;18.40;70.60
36416;DHT22;22447;44.530;18.620;2023-04-25T12:20:14;18.00;68.20
36416;DHT22;22447;44.530;18.620;2023-04-25T12:22:42;18.10;69.30
36416;DHT22;22447;44.530;18.620;2023-04-25T12:25:47;18.20;68.40
36416;DHT22;22447;44.530;18.620;2023-04-25T12:28:14;18.40;70.80
36416;DHT22;22447;44.530;18.620;2023-04-25T12:30:59;18.10;66.30
36416;DHT22;22447;44.530;18.620;2023-04-25T12:33:26;18.10;67.30
36416;DHT22;22447;44.530;18.620;2023-04-25T12:35:55;18.00;65.70
36416;DHT22;22447;44.530;18.620;2023-04-25T12:40:47;18.10;64.70
36416;DHT22;22447;44.530;18.620;2023-04-25T12:43:13;17.80;65.10
36416;DHT22;22447;44.530;18.620;2023-04-25T12:45:38;18.00;64.30
36416;DHT22;22447;44.530;18.620;2023-04-25T12:48:05;18.00;65.00
36416;DHT22;22447;44.530;18.620;2023-04-25T12:50:31;18.20;64.00
36416;DHT22;22447;44.530;18.620;2023-04-25T12:52:57;18.40;63.50
36416;DHT22;22447;44.530;18.620;2023-04-25T12:55:23;18.70;62.40
36416;DHT22;22447;44.530;18.620;2023-04-25T12:57:49;19.00;62.10
36416;DHT22;22447;44.530;18.620;2023-04-25T13:00:15;19.30;62.10
36416;DHT22;22447;44.530;18.620;2023-04-25T13:02:43;19.10;60.40
36416;DHT22;22447;44.530;18.620;2023-04-25T13:05:09;19.10;60.50
36416;DHT22;22447;44.530;18.620;2023-04-25T13:07:34;18.90;59.80
36416;DHT22;22447;44.530;18.620;2023-04-25T13:10:00;19.00;62.80
36416;DHT22;22447;44.530;18.620;2023-04-25T13:12:28;19.30;62.50
36416;DHT22;22447;44.530;18.620;2023-04-25T13:14:53;19.40;57.40
36416;DHT22;22447;44.530;18.620;2023-04-25T13:17:19;19.40;55.90
36416;DHT22;22447;44.530;18.620;2023-04-25T13:19:45;19.30;59.20
36416;DHT22;22447;44.530;18.620;2023-04-25T13:22:11;19.20;59.80
36416;DHT22;22447;44.530;18.620;2023-04-25T13:24:37;19.10;60.10
36416;DHT22;22447;44.530;18.620;2023-04-25T13:27:03;19.20;58.90
36416;DHT22;22447;44.530;18.620;2023-04-25T13:29:29;19.50;58.80
36416;DHT22;22447;44.530;18.620;2023-04-25T13:31:55;19.60;58.00
36416;DHT22;22447;44.530;18.620;2023-04-25T13:34:20;19.50;57.50
36416;DHT22;22447;44.530;18.620;2023-04-25T13:36:46;19.50;57.40
36416;DHT22;22447;44.530;18.620;2023-04-25T13:39:12;20.00;58.40
36416;DHT22;22447;44.530;18.620;2023-04-25T13:41:38;20.50;58.70
36416;DHT22;22447;44.530;18.620;2023-04-25T13:44:04;20.70;57.10
36416;DHT22;22447;44.530;18.620;2023-04-25T13:46:30;20.60;58.70
36416;DHT22;22447;44.530;18.620;2023-04-25T13:48:56;20.70;58.80
36416;DHT22;22447;44.530;18.620;2023-04-25T13:51:21;20.80;57.50
36416;DHT22;22447;44.530;18.620;2023-04-25T13:53:47;20.90;59.40
36416;DHT22;22447;44.530;18.620;2023-04-25T13:56:13;20.90;57.00
36416;DHT22;22447;44.530;18.620;2023-04-25T13:58:39;21.00;57.90
36416;DHT22;22447;44.530;18.620;2023-04-25T14:01:05;21.00;58.30
36416;DHT22;22447;44.530;18.620;2023-04-25T14:03:31;20.70;56.80
36416;DHT22;22447;44.530;18.620;2023-04-25T14:05:57;20.60;55.40
36416;DHT22;22447;44.530;18.620;2023-04-25T14:08:23;20.10;56.30
36416;DHT22;22447;44.530;18.620;2023-04-25T14:10:48;20.40;57.00
36416;DHT22;22447;44.530;18.620;2023-04-25T14:13:14;20.20;56.90
36416;DHT22;22447;44.530;18.620;2023-04-25T14:15:40;20.30;56.20
36416;DHT22;22447;44.530;18.620;2023-04-25T14:18:06;20.50;56.20
36416;DHT22;22447;44.530;18.620;2023-04-25T14:20:32;20.40;57.40
36416;DHT22;22447;44.530;18.620;2023-04-25T14:22:57;20.10;57.60
36416;DHT22;22447;44.530;18.620;2023-04-25T14:25:24;20.10;58.20
36416;DHT22;22447;44.530;18.620;2023-04-25T14:27:50;19.80;57.80
36416;DHT22;22447;44.530;18.620;2023-04-25T14:30:19;19.60;59.00
36416;DHT22;22447;44.530;18.620;2023-04-25T14:32:45;19.70;59.80
36416;DHT22;22447;44.530;18.620;2023-04-25T14:35:11;19.90;57.40
36416;DHT22;22447;44.530;18.620;2023-04-25T14:37:37;20.00;58.00
36416;DHT22;22447;44.530;18.620;2023-04-25T14:40:03;19.90;59.20
36416;DHT22;22447;44.530;18.620;2023-04-25T14:42:30;20.00;58.00
36416;DHT22;22447;44.530;18.620;2023-04-25T14:44:55;19.70;57.90
36416;DHT22;22447;44.530;18.620;2023-04-25T14:47:21;20.00;58.30
36416;DHT22;22447;44.530;18.620;2023-04-25T14:49:47;19.80;56.80
36416;DHT22;22447;44.530;18.620;2023-04-25T14:52:20;19.20;56.90
36416;DHT22;22447;44.530;18.620;2023-04-25T14:54:46;19.50;58.30
36416;DHT22;22447;44.530;18.620;2023-04-25T14:57:12;19.50;57.90
36416;DHT22;22447;44.530;18.620;2023-04-25T14:59:38;19.40;58.00
36416;DHT22;22447;44.530;18.620;2023-04-25T15:02:04;19.20;58.40
36416;DHT22;22447;44.530;18.620;2023-04-25T15:04:30;19.00;58.40
36416;DHT22;22447;44.530;18.620;2023-04-25T15:06:56;18.90;59.40
36416;DHT22;22447;44.530;18.620;2023-04-25T15:09:22;19.00;59.80
36416;DHT22;22447;44.530;18.620;2023-04-25T15:11:49;19.00;57.70
36416;DHT22;22447;44.530;18.620;2023-04-25T15:14:16;18.90;58.40
36416;DHT22;22447;44.530;18.620;2023-04-25T15:16:42;18.90;59.90
36416;DHT22;22447;44.530;18.620;2023-04-25T15:19:07;19.00;60.40
36416;DHT22;22447;44.530;18.620;2023-04-25T15:21:33;18.90;59.80
36416;DHT22;22447;44.530;18.620;2023-04-25T15:23:59;18.90;59.30
36416;DHT22;22447;44.530;18.620;2023-04-25T15:26:26;18.90;59.80
36416;DHT22;22447;44.530;18.620;2023-04-25T15:28:52;18.80;60.80
36416;DHT22;22447;44.530;18.620;2023-04-25T15:31:18;18.90;62.20
36416;DHT22;22447;44.530;18.620;2023-04-25T15:33:44;18.90;63.00
36416;DHT22;22447;44.530;18.620;2023-04-25T15:36:09;18.80;61.30